Main page
METAR-TAF:

METAR-TAF

Airports :

Karlstad Airport

Karlstad, Sweden

latitude: 59-26-41N, longitude: 013-20-15E, elevation: 107 m

Current weather observation

The report was made 14 minutes ago, at 14:20 UTC
Wind 8 kt from the Southwest
Temperature 7°C
Humidity 66%
Pressure 1005 hPa
Visibility 10 km or more
no clouds below 1500 m and no cumulonimbus

METAR: ESOK 241420Z 23008KT CAVOK 07/01 Q1005

Time: 15:34 (14:34 UTC)

Forecast

The report was made 3 hours and 4 minutes ago, at 11:30 UTC
Forecast valid from 24 at 12 UTC to 24 at 20 UTC
Wind 5 kt from the Southwest
Visibility 10 km or more
no clouds below 1500 m and no cumulonimbus

TAF: ESOK 241130Z 2412/2420 23005KT CAVOK

Weather observations and forecasts of more than 4000 airports (METAR and TAF reports).

The available stations are represented by yellow and red dots on the map.

Hover mouse over dot to see the name of the station.

Then click to see weather observations and forecasts.

To change the map : click on the green buttons with a black cross to zoom in, on the green button with a dash to zoom out, or on the green arrows for adjacent maps.


METAR-TAF: